Time;durP1;ratioP1;P1;durP2;ratioP2;P2;SDS_P1;SDS_P2;PMS_P1;PMS_P2;Temp;Humidity;BMP_temperature;BMP_pressure;BME280_temperature;BME280_humidity;BME280_pressure;Samples;Min_cycle;Max_cycle;Signal;HPM_P1;HPM_P2
2023/04/19 00:02:24;;;;;;;27.80;14.70;;;;;;;10.16;60.77;99111.41;105362;1255;102165;-88
2023/04/19 00:04:52;;;;;;;27.20;13.70;;;;;;;10.15;60.83;99104.24;105314;1256;107109;-87
2023/04/19 00:07:20;;;;;;;27.40;14.00;;;;;;;10.14;60.84;99102.89;105391;1256;99182;-91
2023/04/19 00:09:48;;;;;;;28.20;14.60;;;;;;;10.12;60.87;99101.23;105411;1256;99136;-88
2023/04/19 00:12:16;;;;;;;28.70;14.70;;;;;;;10.13;60.94;99097.27;105333;1256;111226;-87
2023/04/19 00:14:43;;;;;;;26.50;14.40;;;;;;;10.12;61.22;99092.89;105215;1256;102232;-85
2023/04/19 00:17:12;;;;;;;27.90;14.60;;;;;;;10.11;60.97;99091.34;105185;1255;105870;-89
2023/04/19 00:19:40;;;;;;;26.40;14.30;;;;;;;10.10;61.22;99094.79;105401;1253;97927;-88
2023/04/19 00:22:07;;;;;;;27.30;14.20;;;;;;;10.08;61.18;99091.23;105425;1254;99319;-87
2023/04/19 00:24:35;;;;;;;28.90;13.40;;;;;;;10.07;61.54;99088.08;105121;1256;111316;-90
2023/04/19 00:27:03;;;;;;;26.00;13.40;;;;;;;10.06;61.52;99090.13;105394;1251;101936;-84
2023/04/19 00:29:31;;;;;;;27.30;13.20;;;;;;;10.04;61.46;99086.88;105305;1256;107076;-90
2023/04/19 00:31:59;;;;;;;25.40;12.40;;;;;;;10.03;61.62;99088.72;105379;1256;98045;-87
2023/04/19 00:34:27;;;;;;;23.90;11.80;;;;;;;10.02;61.88;99088.12;105156;1254;98398;-90
2023/04/19 00:36:55;;;;;;;25.70;12.80;;;;;;;10.01;61.81;99087.13;105510;1252;110890;-87
2023/04/19 00:39:23;;;;;;;27.00;12.60;;;;;;;9.99;61.64;99083.14;105457;1251;102224;-88
2023/04/19 00:41:51;;;;;;;27.00;11.90;;;;;;;9.99;61.77;99081.56;105164;1255;107094;-86
2023/04/19 00:44:19;;;;;;;23.90;12.30;;;;;;;9.98;61.78;99082.70;105383;1256;97944;-86
2023/04/19 00:46:48;;;;;;;22.90;11.80;;;;;;;9.97;61.86;99077.46;105207;1256;98433;-87
2023/04/19 00:49:20;;;;;;;23.30;11.70;;;;;;;9.97;61.81;99074.45;105350;1256;110689;-87
2023/04/19 00:51:49;;;;;;;24.70;13.30;;;;;;;9.97;61.87;99068.77;105235;1256;102322;-88
2023/04/19 00:54:18;;;;;;;25.60;11.40;;;;;;;9.98;62.00;99066.23;105297;1256;107235;-79
2023/04/19 00:56:46;;;;;;;23.70;11.70;;;;;;;9.97;62.06;99066.66;105382;1266;99230;-87
2023/04/19 00:59:15;;;;;;;22.70;12.10;;;;;;;9.96;61.98;99061.09;105290;1255;98898;-88
2023/04/19 01:01:43;;;;;;;23.00;11.40;;;;;;;9.95;62.11;99063.29;105241;1256;110488;-89
2023/04/19 01:04:11;;;;;;;23.60;12.00;;;;;;;9.93;62.17;99062.90;105713;1256;102443;-87
2023/04/19 01:06:40;;;;;;;24.00;11.90;;;;;;;9.91;62.17;99062.31;105390;1253;107491;-88
2023/04/19 01:09:08;;;;;;;24.80;12.60;;;;;;;9.89;62.23;99060.83;105309;1264;97936;-84
2023/04/19 01:11:36;;;;;;;25.20;13.40;;;;;;;9.88;62.24;99059.66;105385;1255;99189;-89
2023/04/19 01:14:04;;;;;;;28.00;13.40;;;;;;;9.87;62.22;99056.95;105185;1257;110714;-87
2023/04/19 01:16:32;;;;;;;24.60;12.60;;;;;;;9.85;62.33;99053.30;105413;1255;102213;-82
2023/04/19 01:19:01;;;;;;;23.50;13.10;;;;;;;9.83;62.40;99052.73;105347;1255;107458;-88
2023/04/19 01:21:29;;;;;;;23.90;12.60;;;;;;;9.81;62.59;99051.84;105390;1256;98760;-85
2023/04/19 01:23:57;;;;;;;25.10;12.90;;;;;;;9.79;62.60;99048.61;105355;1255;98505;-89
2023/04/19 01:26:25;;;;;;;24.80;12.90;;;;;;;9.77;62.62;99046.11;105289;1256;111240;-89
2023/04/19 01:28:52;;;;;;;25.90;13.90;;;;;;;9.75;62.87;99043.23;105393;1253;102182;-92
2023/04/19 01:31:21;;;;;;;25.20;13.90;;;;;;;9.73;62.74;99043.35;105186;1268;107614;-86
2023/04/19 01:33:49;;;;;;;23.20;13.40;;;;;;;9.73;62.83;99038.04;105302;1258;98774;-86
2023/04/19 01:36:16;;;;;;;27.90;14.80;;;;;;;9.73;62.83;99039.45;105350;1256;98404;-88
2023/04/19 01:38:46;;;;;;;26.80;14.80;;;;;;;9.72;63.00;99034.02;105400;1255;113351;-88
2023/04/19 01:41:14;;;;;;;27.50;14.90;;;;;;;9.72;63.28;99032.81;105432;1256;101279;-87
2023/04/19 01:43:42;;;;;;;26.30;14.40;;;;;;;9.70;63.27;99032.39;105422;1256;107192;-86
2023/04/19 01:46:10;;;;;;;27.50;15.40;;;;;;;9.68;63.07;99024.02;105232;1253;99269;-86
2023/04/19 01:48:38;;;;;;;27.20;15.40;;;;;;;9.68;63.10;99018.56;105286;1256;97904;-88
2023/04/19 01:51:06;;;;;;;28.20;15.70;;;;;;;9.66;63.16;99015.98;105275;1257;111304;-88
2023/04/19 01:53:34;;;;;;;27.90;16.10;;;;;;;9.65;63.84;99015.73;105371;1253;101867;-89
2023/04/19 01:56:01;;;;;;;27.30;15.50;;;;;;;9.63;63.40;99014.08;105397;1256;107625;-88
2023/04/19 01:58:29;;;;;;;24.10;13.80;;;;;;;9.62;63.56;99010.29;105354;1255;99263;-87
2023/04/19 02:00:57;;;;;;;27.50;15.50;;;;;;;9.61;63.45;99010.16;105406;1258;98465;-87
2023/04/19 02:03:44;;;;;;;27.50;15.10;;;;;;;9.60;63.56;99008.80;105460;1255;112634;-87
2023/04/19 02:06:13;;;;;;;26.40;14.50;;;;;;;9.58;63.56;99006.64;105260;1256;101367;-89
2023/04/19 02:08:41;;;;;;;24.80;14.00;;;;;;;9.58;63.75;99010.76;105450;1255;107335;-88
2023/04/19 02:11:15;;;;;;;26.60;16.00;;;;;;;9.56;63.49;99009.10;105169;1258;99145;-87
2023/04/19 02:13:42;;;;;;;26.90;15.30;;;;;;;9.56;63.77;99008.44;105238;1256;99361;-87
2023/04/19 02:16:28;;;;;;;26.90;15.20;;;;;;;9.54;63.74;99010.81;105203;1254;112662;-88
2023/04/19 02:18:57;;;;;;;26.50;15.10;;;;;;;9.52;63.79;99006.69;105258;1255;101895;-88
2023/04/19 02:21:26;;;;;;;29.00;15.20;;;;;;;9.51;63.97;99004.64;105157;1253;107635;-84
2023/04/19 02:23:54;;;;;;;26.10;15.30;;;;;;;9.49;63.97;99001.05;105138;1256;98028;-88
2023/04/19 02:26:23;;;;;;;31.20;15.70;;;;;;;9.49;63.87;99001.27;105162;1253;99179;-85
2023/04/19 02:28:51;;;;;;;23.30;13.80;;;;;;;9.48;63.96;98999.94;105344;1256;110885;-88
2023/04/19 02:31:19;;;;;;;28.00;14.40;;;;;;;9.46;64.09;98997.19;105258;1256;101806;-88
2023/04/19 02:33:48;;;;;;;28.40;15.60;;;;;;;9.47;64.25;98996.13;105361;1265;107637;-88
2023/04/19 02:36:16;;;;;;;27.10;14.90;;;;;;;9.45;64.14;98995.85;105227;1258;98875;-87
2023/04/19 02:38:44;;;;;;;26.10;14.50;;;;;;;9.44;64.12;98994.50;105540;1253;99103;-88
2023/04/19 02:41:12;;;;;;;26.90;14.50;;;;;;;9.44;64.56;98991.67;105249;1267;111274;-87
2023/04/19 02:43:40;;;;;;;27.90;15.10;;;;;;;9.44;64.28;98994.89;105148;1256;99923;-88
2023/04/19 02:46:09;;;;;;;25.60;14.80;;;;;;;9.44;64.23;98990.83;105303;1265;105762;-86
2023/04/19 02:48:37;;;;;;;29.50;14.80;;;;;;;9.43;64.21;98991.95;105550;1256;97994;-82
2023/04/19 02:51:06;;;;;;;24.20;12.90;;;;;;;9.42;64.45;98989.17;105468;1256;98470;-88
2023/04/19 02:53:33;;;;;;;26.40;14.20;;;;;;;9.40;64.40;98986.66;105278;1257;111572;-86
2023/04/19 02:56:02;;;;;;;26.50;14.60;;;;;;;9.39;64.32;98986.36;105362;1266;102205;-87
2023/04/19 02:58:30;;;;;;;24.10;13.80;;;;;;;9.38;64.42;98982.35;105191;1266;107747;-86
2023/04/19 03:00:58;;;;;;;27.50;14.80;;;;;;;9.38;64.41;98983.42;105188;1256;98056;-88
2023/04/19 03:03:27;;;;;;;26.50;13.50;;;;;;;9.38;64.64;98980.06;105466;1256;98450;-87
2023/04/19 03:05:55;;;;;;;25.10;14.20;;;;;;;9.36;64.40;98975.21;105361;1256;111327;-88
2023/04/19 03:08:22;;;;;;;25.40;13.10;;;;;;;9.37;64.55;98972.33;105372;1253;102253;-87
2023/04/19 03:10:50;;;;;;;24.50;13.50;;;;;;;9.37;64.69;98965.42;105369;1256;107766;-88
2023/04/19 03:13:18;;;;;;;24.50;13.50;;;;;;;9.38;64.79;98963.98;105175;1267;98888;-88
2023/04/19 03:15:47;;;;;;;26.10;14.80;;;;;;;9.37;64.77;98963.10;105287;1251;286897;-86
2023/04/19 03:18:16;;;;;;;25.40;13.70;;;;;;;9.38;64.75;98964.83;105192;1255;110831;-79
2023/04/19 03:20:44;;;;;;;22.10;12.50;;;;;;;9.40;64.77;98964.52;105331;1269;101846;-89
2023/04/19 03:23:12;;;;;;;23.20;12.10;;;;;;;9.42;64.58;98964.40;105315;1256;107571;-87
2023/04/19 03:25:40;;;;;;;22.50;12.00;;;;;;;9.42;64.99;98965.11;105255;1266;97992;-87
2023/04/19 03:28:08;;;;;;;23.30;12.30;;;;;;;9.42;64.84;98963.70;105098;1256;98434;-89
2023/04/19 03:30:36;;;;;;;23.90;12.20;;;;;;;9.43;64.83;98962.23;105369;1252;112526;-86
2023/04/19 03:33:04;;;;;;;22.30;11.70;;;;;;;9.42;65.03;98961.91;105269;1258;101923;-71
2023/04/19 03:35:32;;;;;;;22.80;11.40;;;;;;;9.44;64.91;98957.58;105144;1254;106187;-71
2023/04/19 03:38:00;;;;;;;22.30;10.60;;;;;;;9.44;65.34;98956.83;105453;1257;98158;-71
2023/04/19 03:40:29;;;;;;;22.40;11.10;;;;;;;9.44;64.98;98958.05;105510;1255;98420;-71
2023/04/19 03:42:58;;;;;;;22.90;10.80;;;;;;;9.45;65.07;98956.20;105224;1266;111257;-75
2023/04/19 03:45:26;;;;;;;23.30;11.10;;;;;;;9.45;64.92;98953.59;105178;1266;102267;-70
2023/04/19 03:47:53;;;;;;;20.40;10.50;;;;;;;9.45;64.95;98952.31;105393;1258;107323;-72
2023/04/19 03:50:21;;;;;;;20.70;11.30;;;;;;;9.46;64.96;98949.92;105380;1256;98867;-71
2023/04/19 03:52:49;;;;;;;22.30;10.90;;;;;;;9.46;65.12;98945.03;105126;1257;99375;-75
2023/04/19 03:55:17;;;;;;;23.20;11.40;;;;;;;9.44;65.04;98945.66;105341;1258;110004;-71
2023/04/19 03:57:45;;;;;;;20.90;11.00;;;;;;;9.43;65.05;98944.14;105222;1264;102190;-72
2023/04/19 04:00:14;;;;;;;23.90;11.50;;;;;;;9.43;65.39;98945.39;105310;1264;107081;-69
2023/04/19 04:02:41;;;;;;;23.30;11.40;;;;;;;9.40;65.31;98946.81;108724;1251;95792;-71
2023/04/19 04:05:10;;;;;;;22.30;11.30;;;;;;;9.38;65.22;98946.24;108775;1251;96927;-71
2023/04/19 04:07:38;;;;;;;20.60;11.00;;;;;;;9.37;65.25;98948.77;108747;1251;111227;-71
2023/04/19 04:10:06;;;;;;;23.50;12.30;;;;;;;9.37;65.36;98949.83;108726;1251;102042;-74
2023/04/19 04:12:34;;;;;;;23.60;12.10;;;;;;;9.37;65.56;98947.59;108745;1251;107683;-70
2023/04/19 04:15:02;;;;;;;22.20;11.20;;;;;;;9.37;65.47;98944.69;105197;1256;98777;-70
2023/04/19 04:17:30;;;;;;;21.30;11.00;;;;;;;9.38;65.60;98946.96;105338;1257;98864;-71
2023/04/19 04:19:58;;;;;;;22.50;12.00;;;;;;;9.38;65.51;98946.58;105191;1267;111277;-70
2023/04/19 04:22:27;;;;;;;22.60;12.00;;;;;;;9.41;65.68;98940.61;105328;1257;102196;-70
2023/04/19 04:24:56;;;;;;;21.60;11.50;;;;;;;9.41;65.78;98941.67;105461;1265;108251;-71
2023/04/19 04:27:24;;;;;;;21.10;10.30;;;;;;;9.38;65.97;98943.42;105437;1256;97942;-70
2023/04/19 04:29:53;;;;;;;22.30;11.10;;;;;;;9.35;65.75;98943.09;105400;1256;98862;-71
2023/04/19 04:32:21;;;;;;;23.30;10.80;;;;;;;9.34;65.80;98943.74;105325;1253;111316;-70
2023/04/19 04:34:50;;;;;;;20.50;11.20;;;;;;;9.33;65.66;98943.76;105316;1255;101234;-72
2023/04/19 04:37:18;;;;;;;21.40;11.30;;;;;;;9.32;65.83;98948.65;105420;1256;106104;-73
2023/04/19 04:39:45;;;;;;;21.30;10.80;;;;;;;9.29;65.96;98948.83;105348;1264;97930;-70
2023/04/19 04:42:14;;;;;;;20.90;9.90;;;;;;;9.27;66.09;98952.55;105201;1256;98446;-71
2023/04/19 04:44:43;;;;;;;20.60;10.30;;;;;;;9.24;66.22;98953.59;105238;1255;111803;-71
2023/04/19 04:47:12;;;;;;;19.90;10.00;;;;;;;9.22;66.21;98957.78;105334;1267;102266;-70
2023/04/19 04:49:40;;;;;;;22.80;11.20;;;;;;;9.22;66.10;98955.89;105362;1264;107890;-71
2023/04/19 04:52:08;;;;;;;21.20;10.90;;;;;;;9.20;66.16;98954.35;105381;1256;98519;-71
2023/04/19 04:54:36;;;;;;;20.70;10.20;;;;;;;9.21;66.07;98950.77;105166;1260;98421;-71
2023/04/19 04:57:04;;;;;;;21.40;10.30;;;;;;;9.21;66.07;98953.44;105463;1256;110747;-71
2023/04/19 04:59:32;;;;;;;19.30;9.40;;;;;;;9.19;66.39;98950.38;105183;1258;100498;-71
2023/04/19 05:02:00;;;;;;;19.10;9.20;;;;;;;9.19;66.24;98951.82;105348;1274;107622;-73
2023/04/19 05:04:28;;;;;;;18.80;9.10;;;;;;;9.16;66.24;98947.23;105535;1256;99231;-71
2023/04/19 05:06:56;;;;;;;19.00;9.30;;;;;;;9.16;66.25;98950.94;105100;1257;99240;-71
2023/04/19 05:09:23;;;;;;;17.20;8.20;;;;;;;9.14;66.51;98952.54;105137;1258;111300;-70
2023/04/19 05:11:52;;;;;;;18.40;8.20;;;;;;;9.14;66.44;98947.22;105311;1257;102033;-70
2023/04/19 05:14:20;;;;;;;17.80;8.40;;;;;;;9.13;66.49;98946.38;105160;1257;107579;-71
2023/04/19 05:16:48;;;;;;;19.90;8.90;;;;;;;9.12;66.66;98947.85;105296;1264;97966;-67
2023/04/19 05:19:16;;;;;;;19.80;9.40;;;;;;;9.12;66.59;98945.43;105344;1257;98430;-69
2023/04/19 05:21:44;;;;;;;19.70;8.40;;;;;;;9.14;66.66;98945.98;105344;1251;111281;-68
2023/04/19 05:24:11;;;;;;;19.60;9.40;;;;;;;9.15;66.76;98942.03;105426;1251;102230;-68
2023/04/19 05:26:40;;;;;;;18.50;9.10;;;;;;;9.15;66.91;98943.08;105109;1264;107720;-68
2023/04/19 05:29:08;;;;;;;20.20;9.40;;;;;;;9.17;66.83;98945.42;105315;1258;99296;-68
2023/04/19 05:31:36;;;;;;;18.00;8.40;;;;;;;9.18;66.73;98947.46;105376;1256;98772;-67
2023/04/19 05:34:04;;;;;;;22.50;10.40;;;;;;;9.19;66.85;98948.23;105460;1255;111257;-68
2023/04/19 05:36:32;;;;;;;19.60;8.80;;;;;;;9.21;66.78;98945.84;105131;1261;101934;-70
2023/04/19 05:39:00;;;;;;;18.90;8.70;;;;;;;9.21;66.89;98945.83;105395;1264;106780;-69
2023/04/19 05:41:28;;;;;;;17.10;7.90;;;;;;;9.22;66.83;98939.94;105359;1256;98053;-69
2023/04/19 05:43:56;;;;;;;16.60;7.70;;;;;;;9.24;66.88;98939.81;105398;1251;98463;-68
2023/04/19 05:46:24;;;;;;;19.10;8.10;;;;;;;9.24;66.84;98937.50;105419;1265;111460;-67
2023/04/19 05:48:52;;;;;;;18.40;8.40;;;;;;;9.24;66.89;98935.86;105356;1255;100472;-69
2023/04/19 05:51:20;;;;;;;16.30;7.90;;;;;;;9.25;67.02;98939.20;105280;1258;108386;-69
2023/04/19 05:53:48;;;;;;;17.00;7.70;;;;;;;9.25;67.00;98935.83;105322;1254;98027;-68
2023/04/19 05:56:16;;;;;;;17.00;7.70;;;;;;;9.26;67.06;98940.22;105434;1257;98418;-68
2023/04/19 05:58:44;;;;;;;16.60;7.60;;;;;;;9.25;67.37;98937.45;105345;1256;111349;-72
2023/04/19 06:01:12;;;;;;;20.60;8.70;;;;;;;9.23;67.11;98937.54;105409;1257;102264;-69
2023/04/19 06:03:40;;;;;;;21.00;8.70;;;;;;;9.23;66.97;98943.58;105595;1254;107325;-68
2023/04/19 06:06:09;;;;;;;20.20;8.30;;;;;;;9.23;67.23;98941.27;105174;1255;98897;-68
2023/04/19 06:08:36;;;;;;;19.50;8.10;;;;;;;9.23;67.03;98943.95;106488;1251;98421;-68
2023/04/19 06:11:05;;;;;;;19.90;8.50;;;;;;;9.20;67.16;98949.27;105371;1251;111068;-69
2023/04/19 06:13:51;;;;;;;21.60;9.20;;;;;;;9.15;67.17;98949.27;105318;1270;102046;-69
2023/04/19 06:16:19;;;;;;;18.30;8.50;;;;;;;9.13;67.47;98949.76;105123;1260;107645;-69
2023/04/19 06:18:47;;;;;;;19.40;9.40;;;;;;;9.09;67.34;98952.99;108725;1251;95651;-68
2023/04/19 06:21:15;;;;;;;18.80;8.50;;;;;;;9.08;67.41;98953.41;105839;1251;97870;-70
2023/04/19 06:23:43;;;;;;;18.20;9.00;;;;;;;9.08;67.67;98952.93;105633;1253;111243;-68
2023/04/19 06:26:11;;;;;;;19.50;8.50;;;;;;;9.07;67.31;98953.48;105273;1256;100458;-68
2023/04/19 06:28:39;;;;;;;17.50;8.20;;;;;;;9.09;67.46;98951.98;105567;1251;108711;-68
2023/04/19 06:31:07;;;;;;;19.90;9.30;;;;;;;9.10;67.51;98951.70;105340;1264;97946;-69
2023/04/19 06:33:35;;;;;;;20.30;10.10;;;;;;;9.12;67.58;98951.04;105359;1257;98471;-68
2023/04/19 06:36:04;;;;;;;19.40;9.30;;;;;;;9.13;67.46;98951.73;105297;1257;111229;-68
2023/04/19 06:38:32;;;;;;;18.50;8.90;;;;;;;9.14;67.69;98953.24;105252;1257;102512;-69
2023/04/19 06:41:00;;;;;;;18.90;8.70;;;;;;;9.13;67.56;98953.68;105174;1256;108532;-68
2023/04/19 06:43:28;;;;;;;17.70;8.20;;;;;;;9.15;67.69;98954.60;105300;1254;97944;-73
2023/04/19 06:45:59;;;;;;;15.80;7.80;;;;;;;9.15;67.67;98957.41;105407;1256;98519;-70
2023/04/19 06:48:28;;;;;;;18.00;8.40;;;;;;;9.14;67.72;98958.56;105366;1256;111240;-70
2023/04/19 06:50:56;;;;;;;21.80;9.50;;;;;;;9.12;67.56;98959.21;105416;1251;102233;-70
2023/04/19 06:53:26;;;;;;;17.50;8.60;;;;;;;9.12;67.72;98960.44;105257;1251;107616;-67
2023/04/19 06:56:01;;;;;;;17.80;8.50;;;;;;;9.14;67.92;98960.88;105337;1257;97951;-68
2023/04/19 06:58:33;;;;;;;17.00;8.40;;;;;;;9.13;67.85;98962.52;105307;1254;99803;-68
2023/04/19 07:01:03;;;;;;;18.40;8.80;;;;;;;9.13;67.90;98960.92;105238;1257;111195;-68
2023/04/19 07:03:31;;;;;;;22.30;10.50;;;;;;;9.12;67.79;98964.13;105602;1257;101530;-68
2023/04/19 07:06:00;;;;;;;18.30;8.50;;;;;;;9.13;67.97;98964.48;105359;1257;108039;-68
2023/04/19 07:08:28;;;;;;;18.30;9.10;;;;;;;9.14;67.95;98961.70;105274;1257;97995;-68
2023/04/19 07:11:15;;;;;;;18.00;8.20;;;;;;;9.18;68.08;98963.69;105126;1254;98443;-74
2023/04/19 07:13:43;;;;;;;21.50;14.30;;;;;;;9.21;68.14;98963.38;105326;1257;111254;-69
2023/04/19 07:16:13;;;;;;;19.90;11.60;;;;;;;9.24;68.07;98959.94;105613;1256;103825;-70
2023/04/19 07:18:42;;;;;;;20.00;9.30;;;;;;;9.27;68.11;98960.86;105209;1266;106770;-70
2023/04/19 07:21:10;;;;;;;17.50;9.10;;;;;;;9.29;68.18;98962.98;105252;1256;98781;-68
2023/04/19 07:23:39;;;;;;;20.40;10.20;;;;;;;9.32;68.15;98960.33;105431;1251;98520;-68
2023/04/19 07:26:07;;;;;;;23.90;14.40;;;;;;;9.32;68.17;98962.60;105386;1251;110704;-68
2023/04/19 07:28:35;;;;;;;22.20;14.70;;;;;;;9.33;68.24;98957.73;105381;1255;102569;-68
2023/04/19 07:31:03;;;;;;;21.20;13.70;;;;;;;9.35;68.34;98960.97;105387;1257;108026;-68
2023/04/19 07:33:31;;;;;;;22.10;11.30;;;;;;;9.33;68.47;98960.60;105342;1258;97960;-68
2023/04/19 07:35:59;;;;;;;29.90;17.70;;;;;;;9.31;68.49;98964.11;105335;1251;98764;-67
2023/04/19 07:38:27;;;;;;;25.80;15.20;;;;;;;9.31;68.67;98964.80;105156;1254;110828;-68
2023/04/19 07:40:55;;;;;;;29.80;19.50;;;;;;;9.31;68.58;98963.02;105360;1257;101905;-68
2023/04/19 07:43:23;;;;;;;25.50;11.80;;;;;;;9.34;68.45;98963.02;105544;1256;106812;-69
2023/04/19 07:45:51;;;;;;;22.70;11.80;;;;;;;9.38;68.52;98962.36;105358;1268;98027;-69
2023/04/19 07:48:19;;;;;;;22.70;11.40;;;;;;;9.43;68.50;98960.99;105250;1251;99367;-68
2023/04/19 07:50:48;;;;;;;21.80;12.10;;;;;;;9.48;68.58;98962.21;105311;1255;111211;-69
2023/04/19 07:53:17;;;;;;;23.40;11.20;;;;;;;9.53;68.54;98961.85;105131;1256;102076;-70
2023/04/19 07:55:45;;;;;;;23.90;12.80;;;;;;;9.58;68.66;98963.49;105328;1257;106313;-69
2023/04/19 07:58:12;;;;;;;22.30;13.40;;;;;;;9.64;68.71;98965.87;105382;1266;98389;-68
2023/04/19 08:00:40;;;;;;;22.10;10.80;;;;;;;9.71;68.63;98968.26;105340;1255;98393;-68
2023/04/19 08:03:08;;;;;;;27.50;15.40;;;;;;;9.76;68.66;98962.05;105673;1251;111649;-68
2023/04/19 08:05:37;;;;;;;37.40;18.90;;;;;;;9.80;68.74;98961.38;105286;1264;101922;-68
2023/04/19 08:08:05;;;;;;;26.80;14.00;;;;;;;9.82;68.84;98960.90;105244;1251;107661;-68
2023/04/19 08:10:34;;;;;;;22.50;11.90;;;;;;;9.90;68.79;98963.58;105365;1251;97861;-69
2023/04/19 08:13:02;;;;;;;23.50;13.30;;;;;;;9.98;68.79;98958.85;105281;1251;98373;-69
2023/04/19 08:15:34;;;;;;;23.70;14.40;;;;;;;10.07;68.80;98956.80;105322;1251;111249;-68
2023/04/19 08:18:05;;;;;;;26.20;16.20;;;;;;;10.11;68.85;98957.45;105331;1257;100589;-71
2023/04/19 08:20:34;;;;;;;23.10;13.20;;;;;;;10.11;68.78;98957.77;105314;1263;106604;-68
2023/04/19 08:23:02;;;;;;;21.20;11.70;;;;;;;10.11;68.82;98956.34;105236;1257;99140;-71
2023/04/19 08:25:47;;;;;;;20.40;10.60;;;;;;;10.12;68.80;98956.12;105324;1257;99394;-69
2023/04/19 08:28:16;;;;;;;22.30;11.90;;;;;;;10.12;68.87;98960.31;105427;1254;111278;-69
2023/04/19 08:30:45;;;;;;;22.30;12.70;;;;;;;10.11;68.75;98963.64;105274;1257;102245;-69
2023/04/19 08:33:13;;;;;;;24.50;13.00;;;;;;;10.12;68.99;98960.54;105317;1257;107222;-68
2023/04/19 08:35:41;;;;;;;27.00;14.30;;;;;;;10.18;68.81;98962.43;105242;1252;99242;-68
2023/04/19 08:38:09;;;;;;;24.20;12.80;;;;;;;10.22;69.01;98961.59;105250;1256;99154;-68
2023/04/19 08:40:48;;;;;;;23.10;12.50;;;;;;;10.25;68.88;98962.07;105415;1255;111371;-70
2023/04/19 08:43:18;;;;;;;31.60;15.80;;;;;;;10.31;68.97;98964.70;105264;1255;102144;-69
2023/04/19 08:45:49;;;;;;;27.40;13.80;;;;;;;10.36;69.01;98965.00;105231;1263;107266;-68
2023/04/19 08:48:19;;;;;;;22.80;11.80;;;;;;;10.44;68.98;98969.21;105310;1251;98764;-68
2023/04/19 08:50:49;;;;;;;21.00;10.70;;;;;;;10.52;68.71;98970.59;105287;1256;98023;-68
2023/04/19 08:53:33;;;;;;;21.00;10.70;;;;;;;10.54;68.87;98968.71;105179;1267;111271;-69
2023/04/19 08:56:03;;;;;;;21.10;10.90;;;;;;;10.56;69.00;98968.89;105264;1257;101245;-69
2023/04/19 08:58:47;;;;;;;23.00;11.20;;;;;;;10.64;68.87;98964.75;105155;1257;107724;-68
2023/04/19 09:01:19;;;;;;;21.80;11.40;;;;;;;10.75;69.17;98960.40;105364;1254;99396;-68
2023/04/19 09:04:06;;;;;;;20.60;10.30;;;;;;;10.96;69.10;98950.50;105482;1256;97995;-68
2023/04/19 09:06:55;;;;;;;18.50;9.50;;;;;;;11.17;69.08;98954.59;105240;1256;111315;-72
2023/04/19 09:09:28;;;;;;;18.50;10.00;;;;;;;11.32;69.13;98954.68;105364;1256;102088;-67
2023/04/19 09:11:59;;;;;;;18.30;9.40;;;;;;;11.52;69.06;98952.41;105182;1251;107659;-69
2023/04/19 09:14:29;;;;;;;18.20;8.90;;;;;;;11.76;69.05;98953.20;105331;1254;99166;-68
2023/04/19 09:17:13;;;;;;;21.40;10.60;;;;;;;11.95;68.99;98950.08;105285;1254;98274;-68
2023/04/19 09:19:48;;;;;;;21.80;11.80;;;;;;;12.17;69.00;98945.21;105372;1264;111533;-68
2023/04/19 09:22:17;;;;;;;20.50;9.50;;;;;;;12.40;68.99;98943.66;105176;1264;102129;-69
2023/04/19 09:24:45;;;;;;;18.80;9.70;;;;;;;12.63;69.19;98939.11;105276;1257;107637;-68
2023/04/19 09:27:35;;;;;;;20.60;10.10;;;;;;;12.86;68.96;98939.17;105158;1256;99288;-70
2023/04/19 09:30:05;;;;;;;18.90;9.50;;;;;;;12.84;68.81;98942.51;105432;1254;98348;-68
2023/04/19 09:32:45;;;;;;;20.70;10.70;;;;;;;12.70;68.41;98944.03;105127;1254;111864;-68
2023/04/19 09:35:14;;;;;;;17.50;9.00;;;;;;;12.69;68.65;98943.08;105304;1251;102238;-67
2023/04/19 09:37:42;;;;;;;19.30;9.60;;;;;;;12.81;68.83;98942.42;105296;1265;107621;-68
2023/04/19 09:40:24;;;;;;;21.00;9.50;;;;;;;12.92;68.74;98943.46;105299;1251;98874;-69
2023/04/19 09:42:52;;;;;;;15.20;7.60;;;;;;;12.91;68.80;98941.06;105177;1256;99315;-67
2023/04/19 09:45:22;;;;;;;17.60;8.70;;;;;;;12.88;68.37;98945.06;105617;1256;111229;-73
2023/04/19 09:48:06;;;;;;;18.40;9.90;;;;;;;12.81;68.49;98944.42;105142;1256;101562;-69
2023/04/19 09:50:36;;;;;;;19.40;9.10;;;;;;;12.77;68.33;98945.80;105263;1255;107665;-69
2023/04/19 09:53:22;;;;;;;19.90;9.30;;;;;;;12.79;68.63;98939.60;105154;1251;99250;-67
2023/04/19 09:55:51;;;;;;;17.40;7.90;;;;;;;12.76;68.35;98944.80;105333;1251;98434;-68
2023/04/19 09:58:29;;;;;;;17.40;8.80;;;;;;;12.67;68.32;98943.08;105362;1255;111321;-67
2023/04/19 10:01:00;;;;;;;18.40;8.70;;;;;;;12.73;68.55;98943.10;105106;1251;102241;-69
2023/04/19 10:03:47;;;;;;;16.70;8.10;;;;;;;12.93;68.50;98944.81;105582;1251;107339;-71
2023/04/19 10:06:18;;;;;;;20.10;9.20;;;;;;;13.05;68.32;98944.89;105170;1252;97960;-70
2023/04/19 10:08:52;;;;;;;17.10;9.00;;;;;;;13.07;68.25;98946.81;105331;1254;97943;-69
2023/04/19 10:11:21;;;;;;;18.30;9.10;;;;;;;13.04;68.01;98944.21;105236;1256;110811;-69
2023/04/19 10:13:55;;;;;;;21.00;9.70;;;;;;;13.02;68.13;98939.29;105320;1255;102277;-74
2023/04/19 10:16:23;;;;;;;20.80;10.10;;;;;;;12.98;68.16;98941.70;105203;1266;107323;-68
2023/04/19 10:18:52;;;;;;;19.30;9.10;;;;;;;12.83;67.99;98943.32;105293;1252;97957;-73
2023/04/19 10:21:21;;;;;;;17.30;7.70;;;;;;;12.63;68.00;98941.22;105342;1252;98031;-68
2023/04/19 10:23:49;;;;;;;17.40;8.00;;;;;;;12.44;68.01;98939.73;105238;1251;110694;-68
2023/04/19 10:26:17;;;;;;;18.10;8.40;;;;;;;12.28;67.94;98941.09;105153;1255;101957;-68
2023/04/19 10:28:47;;;;;;;18.20;8.30;;;;;;;12.14;67.90;98942.05;105326;1256;107571;-68
2023/04/19 10:31:20;;;;;;;19.20;9.30;;;;;;;11.99;67.92;98944.45;105336;1252;98025;-71
2023/04/19 10:33:50;;;;;;;18.80;8.60;;;;;;;11.84;67.86;98945.11;105295;1254;99246;-68
2023/04/19 10:36:20;;;;;;;18.70;8.80;;;;;;;11.73;67.95;98945.44;105311;1264;109708;-68
2023/04/19 10:38:54;;;;;;;18.50;9.00;;;;;;;11.71;67.97;98940.13;105349;1255;101276;-67
2023/04/19 10:41:22;;;;;;;17.00;8.10;;;;;;;11.80;67.98;98942.10;105123;1251;107325;-73
2023/04/19 10:43:56;;;;;;;19.60;9.60;;;;;;;11.88;68.03;98940.65;105318;1251;99320;-69
2023/04/19 10:46:24;;;;;;;21.30;9.70;;;;;;;11.99;68.13;98938.60;105287;1254;99162;-68
2023/04/19 10:48:59;;;;;;;18.10;8.70;;;;;;;12.11;68.20;98942.42;105382;1251;111044;-70
2023/04/19 10:51:31;;;;;;;20.90;9.20;;;;;;;12.20;68.04;98943.33;105320;1257;101832;-70
2023/04/19 10:54:22;;;;;;;20.60;10.10;;;;;;;12.19;68.02;98945.21;105393;1256;107667;-71
2023/04/19 10:57:04;;;;;;;21.30;10.20;;;;;;;12.16;67.95;98944.57;105136;1253;99262;-69
2023/04/19 10:59:35;;;;;;;22.70;10.80;;;;;;;12.08;67.99;98946.95;105237;1254;99171;-68
2023/04/19 11:02:21;;;;;;;19.70;10.00;;;;;;;11.94;67.90;98957.28;105325;1255;110859;-69
2023/04/19 11:04:50;;;;;;;20.60;11.30;;;;;;;11.77;67.75;98955.77;105075;1251;102244;-69
2023/04/19 11:07:20;;;;;;;22.30;12.20;;;;;;;11.71;67.97;98958.42;105164;1255;107175;-68
2023/04/19 11:09:49;;;;;;;20.50;10.70;;;;;;;11.71;68.03;98958.89;105218;1254;99160;-69
2023/04/19 11:12:19;;;;;;;20.00;9.70;;;;;;;11.74;68.11;98959.78;105352;1251;99599;-68
2023/04/19 11:14:58;;;;;;;21.90;11.60;;;;;;;11.76;68.07;98954.08;105340;1251;111355;-69
2023/04/19 11:17:31;;;;;;;20.60;10.50;;;;;;;11.89;68.15;98952.86;105204;1251;100688;-73
2023/04/19 11:20:07;;;;;;;19.70;9.50;;;;;;;12.05;68.33;98954.10;105265;1251;107740;-69
2023/04/19 11:22:38;;;;;;;21.50;12.20;;;;;;;12.22;68.24;98951.39;105257;1256;99163;-69
2023/04/19 11:25:19;;;;;;;20.10;9.80;;;;;;;12.37;68.30;98956.89;105246;1254;98018;-70